Time;durP1;ratioP1;P1;durP2;ratioP2;P2;SDS_P1;SDS_P2;PMS_P1;PMS_P2;Temp;Humidity;BMP_temperature;BMP_pressure;BME280_temperature;BME280_humidity;BME280_pressure;Samples;Min_cycle;Max_cycle;Signal;HPM_P1;HPM_P2
2021/07/20 00:00:15;;;;;;;;;3.33;3.00;;;;;24.77;51.61;98447.13;4914040;28;104075;-81
2021/07/20 00:02:44;;;;;;;;;5.33;5.33;;;;;24.77;51.67;98446.28;4909577;28;105668;-82
2021/07/20 00:05:12;;;;;;;;;5.33;4.67;;;;;24.76;51.70;98444.66;4909052;28;103973;-81
2021/07/20 00:07:40;;;;;;;;;3.00;3.00;;;;;24.76;51.58;98442.72;4912991;28;105795;-81
2021/07/20 00:10:09;;;;;;;;;4.00;4.00;;;;;24.76;51.50;98444.66;4933734;28;112133;-81
2021/07/20 00:12:37;;;;;;;;;4.00;3.00;;;;;24.75;51.48;98446.63;4940465;28;102548;-82
2021/07/20 00:15:06;;;;;;;;;3.00;3.00;;;;;24.76;51.44;98448.25;4927823;28;107060;-82
2021/07/20 00:17:34;;;;;;;;;5.00;4.00;;;;;24.75;51.37;98446.63;4932703;28;104760;-82
2021/07/20 00:20:04;;;;;;;;;3.00;3.00;;;;;24.73;51.58;98448.84;4930408;28;104551;-81
2021/07/20 00:22:32;;;;;;;;;3.00;2.00;;;;;24.74;51.34;98442.19;4934067;28;105479;-82
2021/07/20 00:25:01;;;;;;;;;3.33;3.00;;;;;24.72;51.43;98447.19;4930246;28;104969;-82
2021/07/20 00:27:29;;;;;;;;;4.67;4.67;;;;;24.74;51.70;98436.66;4941190;28;102356;-81
2021/07/20 00:29:58;;;;;;;;;4.67;4.00;;;;;24.73;51.51;98435.00;4933851;28;112034;-82
2021/07/20 00:32:27;;;;;;;;;4.33;3.00;;;;;24.73;51.35;98431.41;4928561;28;103707;-82
2021/07/20 00:34:54;;;;;;;;;3.00;3.00;;;;;24.72;51.45;98427.03;4935801;28;103506;-82
2021/07/20 00:37:21;;;;;;;;;4.33;3.67;;;;;24.72;51.45;98425.06;4924205;28;104368;-81
2021/07/20 00:39:49;;;;;;;;;3.00;3.00;;;;;24.72;51.27;98424.25;4936736;28;104370;-81
2021/07/20 00:42:16;;;;;;;;;4.33;4.00;;;;;24.71;51.46;98415.13;4936953;28;102616;-81
2021/07/20 00:44:43;;;;;;;;;4.00;4.00;;;;;24.71;51.13;98411.56;4929471;28;102547;-81
2021/07/20 00:47:10;;;;;;;;;5.67;5.00;;;;;24.71;51.13;98408.78;4926823;28;102537;-81
2021/07/20 00:49:38;;;;;;;;;4.00;4.00;;;;;24.71;51.08;98408.78;4933178;28;108975;-81
2021/07/20 00:52:06;;;;;;;;;5.67;4.33;;;;;24.69;50.98;98411.00;4918355;28;102494;-81
2021/07/20 00:54:33;;;;;;;;;6.67;5.00;;;;;24.69;50.79;98402.72;4925128;28;104405;-81
2021/07/20 00:57:01;;;;;;;;;4.00;4.00;;;;;24.67;50.82;98408.56;4934644;28;102920;-81
2021/07/20 00:59:28;;;;;;;;;4.67;3.33;;;;;24.67;50.88;98408.56;4934795;28;104291;-81
2021/07/20 01:01:55;;;;;;;;;5.00;4.33;;;;;24.66;51.08;98412.44;4916962;28;102588;-81
2021/07/20 01:04:22;;;;;;;;;4.33;4.00;;;;;24.67;50.79;98408.56;4920251;28;103474;-81
2021/07/20 01:06:50;;;;;;;;;2.00;2.00;;;;;24.66;50.93;98401.38;4916627;28;104304;-82
2021/07/20 01:09:17;;;;;;;;;4.33;4.33;;;;;24.66;50.80;98401.38;4913406;28;107525;-82
2021/07/20 01:11:45;;;;;;;;;6.67;6.00;;;;;24.67;50.59;98402.22;4928853;28;106112;-82
2021/07/20 01:14:14;;;;;;;;;3.00;2.33;;;;;24.66;50.74;98390.31;4911200;28;102230;-82
2021/07/20 01:16:43;;;;;;;;;5.00;4.00;;;;;24.63;50.85;98382.59;4908161;28;103196;-83
2021/07/20 01:19:13;;;;;;;;;6.00;5.67;;;;;24.65;50.79;98385.91;4914932;28;109112;-83
2021/07/20 01:21:40;;;;;;;;;5.33;4.33;;;;;24.64;50.71;98384.25;4920190;28;102614;-83
2021/07/20 01:24:15;;;;;;;;;4.33;4.33;;;;;24.63;50.68;98379.03;4917396;28;102831;-83
2021/07/20 01:26:43;;;;;;;;;4.00;4.00;;;;;24.62;50.37;98386.50;4919359;28;103040;-83
2021/07/20 01:29:12;;;;;;;;;4.00;4.00;;;;;24.63;50.51;98385.38;4927335;28;107675;-83
2021/07/20 01:31:41;;;;;;;;;4.00;4.00;;;;;24.61;50.52;98376.56;4943672;28;102431;-83
2021/07/20 01:34:10;;;;;;;;;4.00;3.67;;;;;24.61;50.43;98384.84;4926696;28;103750;-83
2021/07/20 01:36:38;;;;;;;;;4.33;4.33;;;;;24.60;50.49;98385.97;4920727;28;104405;-83
2021/07/20 01:39:06;;;;;;;;;4.33;3.67;;;;;24.59;50.29;98387.09;4926768;28;104079;-83
2021/07/20 01:41:33;;;;;;;;;4.00;4.00;;;;;24.59;50.29;98392.59;4937914;28;102166;-82
2021/07/20 01:44:04;;;;;;;;;4.67;4.33;;;;;24.62;50.30;98392.03;4907056;28;104313;-83
2021/07/20 01:46:33;;;;;;;;;3.33;3.00;;;;;24.60;49.92;98387.91;4925622;28;102548;-81
2021/07/20 01:49:03;;;;;;;;;5.00;4.00;;;;;24.57;49.89;98392.09;4928566;28;104335;-81
2021/07/20 01:51:31;;;;;;;;;6.67;5.00;;;;;24.57;50.34;98386.56;4929344;28;102702;-81
2021/07/20 01:53:59;;;;;;;;;3.67;3.00;;;;;24.57;49.99;98391.28;4917801;28;102848;-81
2021/07/20 01:56:26;;;;;;;;;5.00;4.00;;;;;24.56;50.14;98390.44;4911266;28;105318;-82
2021/07/20 01:58:53;;;;;;;;;4.00;4.00;;;;;24.57;50.04;98392.09;4933151;28;104074;-81
2021/07/20 02:01:27;;;;;;;;;3.33;3.33;;;;;24.55;49.78;98383.28;4929052;28;102590;-81
2021/07/20 02:09:19;;;;;;;;;5.00;4.33;;;;;24.54;49.83;98400.97;4931219;28;108839;-81
2021/07/20 02:11:46;;;;;;;;;3.67;3.33;;;;;24.52;49.77;98394.94;4936019;28;104498;-81
2021/07/20 02:14:15;;;;;;;;;5.00;5.00;;;;;24.53;49.69;98402.13;4930163;28;104851;-81
2021/07/20 02:16:44;;;;;;;;;4.00;4.00;;;;;24.51;49.77;98390.50;4932868;28;102573;-81
2021/07/20 02:19:13;;;;;;;;;4.67;4.67;;;;;24.52;49.71;98388.56;4915012;28;108891;-81
2021/07/20 02:21:42;;;;;;;;;4.00;4.00;;;;;24.51;49.38;98392.44;4933116;28;102368;-81
2021/07/20 02:24:09;;;;;;;;;4.00;4.00;;;;;24.51;49.46;98393.28;4911494;28;103572;-81
2021/07/20 02:26:39;;;;;;;;;4.33;4.33;;;;;24.51;49.39;98396.03;4930346;28;103220;-81
2021/07/20 02:29:06;;;;;;;;;3.33;3.00;;;;;24.50;49.34;98399.91;4911632;28;104068;-82
2021/07/20 02:31:34;;;;;;;;;4.00;4.00;;;;;24.50;49.23;98397.16;4907917;28;102606;-81
2021/07/20 02:34:01;;;;;;;;;4.67;3.67;;;;;24.49;49.42;98401.06;4915825;28;113834;-82
2021/07/20 02:36:29;;;;;;;;;4.33;3.33;;;;;24.49;49.40;98406.59;4941985;28;102533;-81
2021/07/20 02:38:57;;;;;;;;;5.00;5.00;;;;;24.48;49.34;98416.00;4911155;28;104737;-81
2021/07/20 02:41:26;;;;;;;;;6.00;5.33;;;;;24.49;49.27;98401.06;4922628;28;103035;-81
2021/07/20 02:43:53;;;;;;;;;4.67;4.67;;;;;24.50;48.94;98412.91;4934216;28;104035;-81
2021/07/20 02:46:20;;;;;;;;;5.00;4.00;;;;;24.51;48.88;98414.56;4927128;28;102882;-81
2021/07/20 02:48:47;;;;;;;;;4.00;3.33;;;;;24.49;49.21;98412.13;4926372;28;104832;-81
2021/07/20 02:51:15;;;;;;;;;4.33;4.00;;;;;24.49;49.11;98423.19;4946397;28;102633;-81
2021/07/20 02:53:42;;;;;;;;;2.67;2.67;;;;;24.46;49.11;98415.44;4921571;28;102756;-81
2021/07/20 02:56:10;;;;;;;;;4.00;4.00;;;;;24.45;48.94;98416.59;4928931;28;102784;-82
2021/07/20 02:58:38;;;;;;;;;5.00;5.00;;;;;24.43;49.22;98419.66;4938652;28;104077;-82
2021/07/20 03:01:05;;;;;;;;;5.00;5.00;;;;;24.42;49.17;98423.53;4927686;28;102551;-81
2021/07/20 03:03:32;;;;;;;;;4.67;4.00;;;;;24.43;49.07;98424.34;4920699;28;104340;-82
2021/07/20 03:06:00;;;;;;;;;6.00;4.67;;;;;24.41;49.16;98418.28;4926722;28;103024;-81
2021/07/20 03:08:31;;;;;;;;;4.33;4.33;;;;;24.41;49.05;98418.28;4914383;28;104189;-81
2021/07/20 03:10:59;;;;;;;;;3.67;3.67;;;;;24.40;49.16;98419.41;4938368;28;102257;-81
2021/07/20 03:13:26;;;;;;;;;5.33;4.00;;;;;24.39;48.93;98421.34;4913953;28;102646;-81
2021/07/20 03:15:54;;;;;;;;;4.67;4.00;;;;;24.38;49.18;98422.47;4913771;28;103555;-81
2021/07/20 03:18:24;;;;;;;;;8.00;5.00;;;;;24.38;48.94;98416.13;4924310;28;110355;-81
2021/07/20 03:20:51;;;;;;;;;4.00;3.67;;;;;24.37;48.99;98414.47;4902904;28;103224;-81
2021/07/20 03:23:18;;;;;;;;;2.00;2.00;;;;;24.37;49.01;98415.28;4913903;28;102974;-81
2021/07/20 03:25:46;;;;;;;;;5.67;4.33;;;;;24.36;48.91;98410.06;4923353;28;102930;-81
2021/07/20 03:28:13;;;;;;;;;5.00;4.00;;;;;24.36;48.97;98412.84;4930196;28;108879;-81
2021/07/20 03:30:40;;;;;;;;;3.33;3.33;;;;;24.35;48.81;98411.19;4930249;28;102511;-81
2021/07/20 03:33:07;;;;;;;;;5.33;4.33;;;;;24.35;48.88;98416.72;4901557;28;102843;-82
2021/07/20 03:35:34;;;;;;;;;4.33;4.33;;;;;24.36;48.44;98413.63;4931355;28;102468;-81
2021/07/20 03:38:02;;;;;;;;;6.00;6.00;;;;;24.37;48.72;98408.94;4913053;28;104821;-81
2021/07/20 03:40:29;;;;;;;;;5.33;5.33;;;;;24.38;48.50;98419.72;4930006;28;102230;-81
2021/07/20 03:42:56;;;;;;;;;4.00;4.00;;;;;24.36;48.68;98424.69;4926191;28;102641;-82
2021/07/20 03:45:23;;;;;;;;;5.67;4.67;;;;;24.38;48.66;98427.16;4932018;28;103300;-82
2021/07/20 03:47:50;;;;;;;;;4.33;4.00;;;;;24.36;48.58;98426.66;4928789;28;103839;-81
2021/07/20 03:50:18;;;;;;;;;6.67;4.00;;;;;24.34;48.88;98423.34;4932064;28;102513;-82
2021/07/20 03:52:45;;;;;;;;;3.67;3.67;;;;;24.33;48.66;98433.59;4927497;28;102577;-81
2021/07/20 03:55:16;;;;;;;;;5.67;4.67;;;;;24.32;48.63;98429.16;4933224;28;102650;-81
2021/07/20 03:57:43;;;;;;;;;4.33;4.00;;;;;24.33;48.65;98428.06;4910394;28;108880;-81
2021/07/20 04:00:10;;;;;;;;;5.00;5.00;;;;;24.31;48.66;98422.00;4915173;28;102538;-81
2021/07/20 04:02:47;;;;;;;;;4.00;4.00;;;;;24.30;48.57;98419.53;4940871;28;103329;-81
2021/07/20 04:05:14;;;;;;;;;3.67;3.67;;;;;24.31;48.84;98421.19;4938980;28;103607;-81
2021/07/20 04:07:42;;;;;;;;;5.00;5.00;;;;;24.31;48.81;98421.19;4931250;28;108793;-81
2021/07/20 04:10:10;;;;;;;;;4.33;4.33;;;;;24.30;48.55;98414.84;4933282;28;105113;-81
2021/07/20 04:12:37;;;;;;;;;7.00;5.00;;;;;24.30;48.42;98416.78;4937144;28;102221;-81
2021/07/20 04:15:05;;;;;;;;;5.67;4.67;;;;;24.31;48.48;98404.59;4930403;28;102281;-82
2021/07/20 04:17:33;;;;;;;;;5.00;5.00;;;;;24.31;48.27;98408.19;4934933;28;105050;-81
2021/07/20 04:20:00;;;;;;;;;5.67;4.33;;;;;24.31;48.19;98408.19;4935101;28;102235;-81
2021/07/20 04:22:27;;;;;;;;;3.67;3.67;;;;;24.32;48.05;98412.59;4928070;28;102621;-81
2021/07/20 04:24:54;;;;;;;;;4.00;4.00;;;;;24.30;47.79;98414.00;4918299;28;103844;-81
2021/07/20 04:27:22;;;;;;;;;6.33;5.33;;;;;24.32;48.16;98411.75;4925352;28;104073;-81
2021/07/20 04:29:49;;;;;;;;;5.67;3.67;;;;;24.31;48.00;98418.41;4924802;28;103535;-81
2021/07/20 04:32:16;;;;;;;;;4.00;3.00;;;;;24.30;48.26;98416.78;4925356;28;103044;-82
2021/07/20 04:34:43;;;;;;;;;5.00;3.67;;;;;24.30;47.95;98422.28;4936970;28;103546;-81
2021/07/20 04:37:10;;;;;;;;;5.00;5.00;;;;;24.31;48.01;98422.00;4916253;28;107488;-81
2021/07/20 04:39:38;;;;;;;;;5.67;5.00;;;;;24.31;48.15;98419.25;4938756;28;103475;-81
2021/07/20 04:42:08;;;;;;;;;5.00;5.00;;;;;24.29;47.94;98415.13;4939553;28;102676;-81
2021/07/20 04:44:36;;;;;;;;;5.00;5.00;;;;;24.31;47.94;98416.50;4942651;28;105302;-82
2021/07/20 04:47:03;;;;;;;;;5.33;5.00;;;;;24.32;48.15;98422.81;4925789;28;105557;-81
2021/07/20 04:49:30;;;;;;;;;4.00;4.00;;;;;24.30;47.74;98428.66;4938551;28;102513;-81
2021/07/20 04:51:59;;;;;;;;;6.00;6.00;;;;;24.30;48.11;98428.66;4932245;28;103699;-82
2021/07/20 04:54:27;;;;;;;;;3.67;3.33;;;;;24.30;48.02;98436.94;4947149;28;102575;-81
2021/07/20 04:56:54;;;;;;;;;5.67;5.67;;;;;24.30;47.92;98430.59;4918795;28;104005;-81
2021/07/20 04:59:21;;;;;;;;;5.00;4.00;;;;;24.28;48.01;98433.63;4930477;28;102555;-81
2021/07/20 05:01:48;;;;;;;;;5.00;5.00;;;;;24.26;47.93;98432.28;4945166;28;102227;-81
2021/07/20 05:04:15;;;;;;;;;4.33;4.33;;;;;24.22;47.75;98434.00;4922008;28;103322;-82
2021/07/20 05:06:45;;;;;;;;;6.33;6.00;;;;;24.21;47.82;98443.41;4933529;28;105212;-81
2021/07/20 05:09:12;;;;;;;;;6.67;5.33;;;;;24.20;47.85;98437.06;4927949;28;104217;-81
2021/07/20 05:11:39;;;;;;;;;5.00;5.00;;;;;24.18;48.04;98441.25;4924311;28;103534;-82
2021/07/20 05:14:07;;;;;;;;;5.00;4.33;;;;;24.18;47.50;98435.72;4919914;28;102302;-81
2021/07/20 05:16:35;;;;;;;;;5.67;5.00;;;;;24.16;47.45;98437.94;4933896;28;104088;-81
2021/07/20 05:19:02;;;;;;;;;4.33;4.33;;;;;24.12;47.91;98434.91;4890436;28;102368;-82
2021/07/20 05:21:30;;;;;;;;;3.67;3.67;;;;;24.15;47.83;98439.00;4927119;28;102356;-81
2021/07/20 05:23:57;;;;;;;;;6.00;6.00;;;;;24.12;47.81;98439.59;4942161;28;102565;-82
2021/07/20 05:26:24;;;;;;;;;5.00;5.00;;;;;24.10;47.52;98436.28;4918553;28;104106;-82
2021/07/20 05:28:51;;;;;;;;;6.00;4.33;;;;;24.12;48.01;98439.59;4927004;28;103532;-81
2021/07/20 05:31:18;;;;;;;;;5.33;5.33;;;;;24.11;47.70;98435.19;4945778;28;103068;-81
2021/07/20 05:33:47;;;;;;;;;5.00;5.00;;;;;24.08;47.87;98428.31;4938759;28;102686;-81
2021/07/20 05:36:14;;;;;;;;;7.00;5.00;;;;;24.07;47.89;98431.38;4937215;28;108939;-82
2021/07/20 05:38:42;;;;;;;;;7.00;7.00;;;;;24.07;47.84;98431.38;4944311;28;102216;-81
2021/07/20 05:41:09;;;;;;;;;5.00;5.00;;;;;24.05;47.70;98428.88;4933733;28;103989;-82
2021/07/20 05:43:36;;;;;;;;;7.00;6.00;;;;;24.08;47.77;98433.03;4925658;28;102845;-81
2021/07/20 05:46:03;;;;;;;;;3.33;3.33;;;;;24.07;47.47;98447.94;4936221;28;104095;-82
2021/07/20 05:48:31;;;;;;;;;6.00;5.67;;;;;24.07;47.57;98448.78;4941383;28;102482;-81
2021/07/20 05:51:02;;;;;;;;;4.00;4.00;;;;;24.06;47.73;98457.34;4947309;28;102650;-81
2021/07/20 05:53:30;;;;;;;;;4.67;4.33;;;;;24.04;47.88;98454.88;4948457;28;102376;-81
2021/07/20 05:56:00;;;;;;;;;4.00;4.00;;;;;24.05;47.78;98458.44;4943024;28;104082;-81
2021/07/20 05:58:27;;;;;;;;;7.00;5.33;;;;;24.06;47.90;98457.34;4937230;28;103694;-81
2021/07/20 06:00:57;;;;;;;;;6.33;5.33;;;;;24.06;47.93;98458.16;4958349;28;104971;-81
2021/07/20 06:03:26;;;;;;;;;6.33;5.67;;;;;24.07;47.81;98456.22;4941935;28;102213;-81
2021/07/20 06:05:54;;;;;;;;;5.00;5.00;;;;;24.07;47.67;98450.69;4938076;28;104136;-81
2021/07/20 06:08:23;;;;;;;;;4.67;4.00;;;;;24.11;47.88;98460.06;4936731;28;102423;-81
2021/07/20 06:11:01;;;;;;;;;6.67;5.00;;;;;24.12;47.96;98459.75;4950782;28;102590;-81
2021/07/20 06:13:32;;;;;;;;;6.67;5.33;;;;;24.13;47.89;98450.38;4925270;28;102799;-81
2021/07/20 06:16:00;;;;;;;;;5.00;4.33;;;;;24.15;47.79;98461.94;4935776;28;104024;-81
2021/07/20 06:18:27;;;;;;;;;7.00;6.00;;;;;24.13;48.14;98458.66;4943227;28;102470;-81
2021/07/20 06:20:56;;;;;;;;;5.00;4.67;;;;;24.15;48.00;98461.94;4941498;28;102386;-81
2021/07/20 06:23:24;;;;;;;;;3.00;3.00;;;;;24.16;48.03;98462.78;4934705;28;102231;-81
2021/07/20 06:25:51;;;;;;;;;4.67;4.67;;;;;24.16;48.03;98457.28;4946316;28;104100;-81
2021/07/20 06:28:21;;;;;;;;;4.67;4.00;;;;;24.19;48.14;98467.72;4942921;28;102151;-81
2021/07/20 06:30:48;;;;;;;;;5.00;4.00;;;;;24.16;48.01;98466.38;4939246;28;102376;-81
2021/07/20 06:33:15;;;;;;;;;5.33;5.00;;;;;24.18;48.11;98466.09;4945443;28;103819;-82
2021/07/20 06:35:43;;;;;;;;;6.00;5.33;;;;;24.17;48.03;98472.75;4940511;28;104259;-81
2021/07/20 06:38:14;;;;;;;;;5.00;4.67;;;;;24.15;48.00;98478.50;4934264;28;103696;-81
2021/07/20 06:40:47;;;;;;;;;6.00;6.00;;;;;24.13;48.41;98477.16;4940890;28;102549;-81
2021/07/20 06:43:14;;;;;;;;;6.33;4.33;;;;;24.14;48.31;98476.03;4951772;28;102603;-81
2021/07/20 06:45:42;;;;;;;;;5.33;4.33;;;;;24.16;48.22;98479.38;4911877;28;104128;-81
2021/07/20 06:48:13;;;;;;;;;7.00;5.00;;;;;24.14;48.27;98482.38;4938649;28;102174;-81
2021/07/20 06:50:40;;;;;;;;;5.33;5.33;;;;;24.19;48.04;98476.00;4941441;28;102592;-81
2021/07/20 06:53:09;;;;;;;;;5.00;5.00;;;;;24.18;47.92;98479.91;4941328;28;102735;-81
2021/07/20 06:55:56;;;;;;;;;5.33;5.33;;;;;24.20;47.92;98480.44;4931944;28;103826;-81
2021/07/20 06:58:25;;;;;;;;;5.67;5.00;;;;;24.22;47.93;98479.03;4940991;28;103043;-81
2021/07/20 07:00:59;;;;;;;;;7.00;6.00;;;;;24.20;48.16;98480.44;4938456;28;102678;-81
2021/07/20 07:03:44;;;;;;;;;4.00;3.67;;;;;24.22;48.13;98478.22;4940321;28;102649;-81
2021/07/20 07:06:11;;;;;;;;;5.33;5.00;;;;;24.24;47.97;98487.03;4945092;28;104115;-81
2021/07/20 07:08:38;;;;;;;;;6.00;6.00;;;;;24.22;48.01;98478.22;4940832;28;102373;-81
2021/07/20 07:11:12;;;;;;;;;5.33;5.00;;;;;24.23;47.73;98488.13;4942582;28;102477;-81
2021/07/20 07:13:39;;;;;;;;;5.00;5.00;;;;;24.28;47.88;98488.06;4948220;28;103051;-81
2021/07/20 07:16:06;;;;;;;;;4.67;4.67;;;;;24.27;47.85;98484.50;4933921;28;104079;-81
2021/07/20 07:18:33;;;;;;;;;6.00;5.00;;;;;24.26;48.10;98484.81;4939748;28;102580;-81
2021/07/20 07:21:00;;;;;;;;;4.67;4.00;;;;;24.26;47.80;98482.03;4926832;28;102617;-81
2021/07/20 07:23:28;;;;;;;;;6.33;5.67;;;;;24.28;48.43;98482.56;4922394;28;102444;-81
2021/07/20 07:25:57;;;;;;;;;3.33;3.33;;;;;24.28;47.92;98482.56;4932033;28;104077;-81
2021/07/20 07:28:25;;;;;;;;;4.33;4.00;;;;;24.30;47.98;98480.34;4915199;28;102277;-81
2021/07/20 07:30:52;;;;;;;;;6.00;5.00;;;;;24.30;47.88;98477.56;4946300;28;103542;-81
2021/07/20 07:33:19;;;;;;;;;7.00;6.00;;;;;24.30;47.83;98480.34;4940872;28;102897;-81
2021/07/20 07:35:46;;;;;;;;;5.00;4.00;;;;;24.30;48.09;98483.09;4938641;28;109059;-81
2021/07/20 07:38:14;;;;;;;;;4.67;3.67;;;;;24.30;47.94;98488.63;4944607;28;102581;-81
2021/07/20 07:40:41;;;;;;;;;4.67;4.67;;;;;24.29;48.28;98495.25;4921830;28;102570;-81
2021/07/20 07:43:08;;;;;;;;;4.00;3.33;;;;;24.31;48.05;98488.34;4921412;28;102636;-81
2021/07/20 07:45:36;;;;;;;;;5.00;3.67;;;;;24.31;47.90;98482.81;4939523;28;104056;-81
2021/07/20 07:48:03;;;;;;;;;4.00;4.00;;;;;24.32;47.76;98489.13;4919168;28;102483;-81
2021/07/20 07:50:30;;;;;;;;;5.00;4.67;;;;;24.32;47.99;98489.13;4931773;28;102648;-81
2021/07/20 07:52:57;;;;;;;;;5.33;4.33;;;;;24.31;48.00;98487.50;4947610;28;102575;-81
2021/07/20 07:55:24;;;;;;;;;4.67;3.67;;;;;24.32;47.93;98494.66;4922182;28;104044;-82
2021/07/20 07:57:52;;;;;;;;;6.00;5.50;;;;;24.31;48.09;98488.34;4935062;28;102329;-81
2021/07/20 08:00:19;;;;;;;;;6.00;5.00;;;;;24.32;47.76;98489.97;4946181;28;103864;-81
2021/07/20 08:02:51;;;;;;;;;5.33;5.33;;;;;24.31;47.82;98487.50;4944242;28;102704;-81
2021/07/20 08:05:21;;;;;;;;;5.67;5.00;;;;;24.30;47.92;98485.84;4915691;28;108900;-81
2021/07/20 08:07:49;;;;;;;;;4.33;4.00;;;;;24.31;48.08;98498.56;4943648;28;103268;-82
2021/07/20 08:10:17;;;;;;;;;3.33;3.33;;;;;24.31;47.91;98487.50;4939456;28;103220;-81
2021/07/20 08:12:45;;;;;;;;;4.00;4.00;;;;;24.31;47.95;98487.50;4938792;28;104077;-81
2021/07/20 08:15:15;;;;;;;;;4.00;4.00;;;;;24.30;48.28;98494.16;4943758;28;104036;-81
2021/07/20 08:17:43;;;;;;;;;5.67;5.00;;;;;24.32;48.21;98502.94;4938860;28;103085;-81
2021/07/20 08:20:12;;;;;;;;;6.33;5.67;;;;;24.31;48.15;98493.88;4946792;28;102563;-81
2021/07/20 08:22:40;;;;;;;;;6.00;5.00;;;;;24.30;48.21;98496.91;4927501;28;102879;-81
2021/07/20 08:25:29;;;;;;;;;4.67;4.00;;;;;24.33;48.00;98502.66;4946291;28;105101;-81
2021/07/20 08:28:14;;;;;;;;;5.00;4.67;;;;;24.30;48.00;98486.69;4939565;28;102563;-81
2021/07/20 08:30:42;;;;;;;;;5.00;5.00;;;;;24.31;48.03;98487.50;4940794;28;102696;-81
2021/07/20 08:33:21;;;;;;;;;4.67;4.67;;;;;24.31;48.07;98491.09;4931460;28;102702;-81
2021/07/20 08:35:48;;;;;;;;;5.00;5.00;;;;;24.32;47.99;98487.19;4943603;28;108940;-81
2021/07/20 08:38:19;;;;;;;;;5.67;4.00;;;;;24.32;47.88;98495.50;4943024;28;102603;-81
2021/07/20 08:40:49;;;;;;;;;3.33;3.33;;;;;24.33;47.71;98490.78;4952453;28;103060;-81
2021/07/20 08:43:47;;;;;;;;;4.33;4.00;;;;;24.33;48.02;98493.56;4950742;28;102648;-81
2021/07/20 08:46:28;;;;;;;;;5.00;4.00;;;;;24.35;48.02;98492.16;4878330;28;112544;-81
2021/07/20 08:49:20;;;;;;;;;6.00;5.00;;;;;24.35;47.92;98496.88;4935825;28;103098;-81
2021/07/20 08:51:50;;;;;;;;;5.67;4.67;;;;;24.36;47.88;98496.56;4943795;28;102111;-81
2021/07/20 08:54:24;;;;;;;;;6.00;5.00;;;;;24.37;48.06;98497.38;4950506;28;102507;-82
2021/07/20 08:56:51;;;;;;;;;6.00;5.67;;;;;24.37;47.81;98503.72;4944095;28;108824;-81
2021/07/20 08:59:20;;;;;;;;;6.00;4.67;;;;;24.37;47.90;98503.72;4938525;28;102536;-81
2021/07/20 09:02:01;;;;;;;;;7.67;6.67;;;;;24.37;47.89;98498.19;4954245;28;102375;-81
2021/07/20 09:04:35;;;;;;;;;5.00;4.33;;;;;24.38;48.17;98493.50;4883401;28;102819;-82
2021/07/20 09:07:12;;;;;;;;;4.00;4.00;;;;;24.38;48.28;98496.28;4940140;28;103995;-81
2021/07/20 09:09:46;;;;;;;;;5.67;5.67;;;;;24.39;47.71;98495.16;4958504;28;102393;-81
2021/07/20 09:12:27;;;;;;;;;5.33;5.33;;;;;24.39;47.87;98495.16;4935861;28;102545;-81
2021/07/20 09:15:00;;;;;;;;;6.33;3.67;;;;;24.39;47.92;98497.91;4924770;28;103735;-81
2021/07/20 09:17:28;;;;;;;;;6.00;6.00;;;;;24.39;47.94;98487.69;4950799;28;104198;-81
2021/07/20 09:20:06;;;;;;;;;5.67;5.00;;;;;24.40;48.13;98494.03;4937435;28;102616;-81
2021/07/20 09:22:51;;;;;;;;;6.00;4.67;;;;;24.40;48.07;98481.06;4930289;28;102721;-81
2021/07/20 09:25:23;;;;;;;;;5.00;5.00;;;;;24.39;48.01;98481.34;4945761;28;102610;-81
2021/07/20 09:28:09;;;;;;;;;6.00;5.67;;;;;24.40;48.36;98492.13;4956533;28;110712;-81
2021/07/20 09:30:40;;;;;;;;;7.67;7.33;;;;;24.41;48.03;98490.13;4887149;28;102515;-81
2021/07/20 09:33:22;;;;;;;;;6.00;6.00;;;;;24.39;48.18;98484.09;4937230;28;102242;-81
2021/07/20 09:36:10;;;;;;;;;6.00;6.00;;;;;24.42;48.13;98489.03;4944238;28;102752;-81
2021/07/20 09:38:52;;;;;;;;;6.33;5.33;;;;;24.44;48.13;98492.34;4883589;28;108889;-81
2021/07/20 09:41:33;;;;;;;;;6.33;6.33;;;;;24.47;47.89;98491.75;4951142;28;103065;-81
2021/07/20 09:44:21;;;;;;;;;6.00;4.33;;;;;24.47;48.08;98480.69;4871694;28;102843;-81
2021/07/20 09:46:58;;;;;;;;;4.00;4.00;;;;;24.49;48.25;98484.00;4942274;28;102553;-81
2021/07/20 09:49:32;;;;;;;;;5.33;5.00;;;;;24.50;48.05;98480.09;4945886;28;108828;-81
2021/07/20 09:52:09;;;;;;;;;6.67;6.00;;;;;24.50;48.01;98488.38;4939371;28;102374;-81
2021/07/20 09:55:13;;;;;;;;;4.00;4.00;;;;;24.49;47.88;98484.00;4940417;28;102536;-81
2021/07/20 09:58:11;;;;;;;;;5.00;4.00;;;;;24.51;48.04;98484.50;4877975;28;103082;-81
2021/07/20 10:00:45;;;;;;;;;5.67;5.00;;;;;24.51;47.97;98487.28;4887262;28;109048;-81
2021/07/20 10:03:40;;;;;;;;;5.33;5.00;;;;;24.53;48.30;98489.75;4919171;28;102637;-81
2021/07/20 10:06:17;;;;;;;;;4.00;4.00;;;;;24.52;47.95;98483.41;4878233;28;103435;-81
2021/07/20 10:08:56;;;;;;;;;7.67;6.33;;;;;24.52;48.11;98477.03;4942623;28;102883;-81
2021/07/20 10:11:44;;;;;;;;;5.67;5.00;;;;;24.53;48.29;98481.47;4945049;28;109021;-81
2021/07/20 10:14:27;;;;;;;;;4.33;3.67;;;;;24.53;48.08;98481.47;4885498;28;102803;-81
2021/07/20 10:17:02;;;;;;;;;6.67;5.33;;;;;24.52;48.20;98477.03;4940517;28;103709;-81
2021/07/20 10:19:42;;;;;;;;;5.00;4.00;;;;;24.52;48.34;98482.56;4947580;28;102584;-81
2021/07/20 10:22:10;;;;;;;;;6.00;5.33;;;;;24.52;48.25;98480.63;4944032;28;104275;-81
2021/07/20 10:24:47;;;;;;;;;7.33;6.00;;;;;24.52;48.23;98480.63;4928365;28;102419;-81
2021/07/20 10:27:17;;;;;;;;;7.00;5.00;;;;;24.54;48.26;98480.34;4936323;28;102873;-81
2021/07/20 10:29:58;;;;;;;;;3.67;3.67;;;;;24.55;48.09;98468.97;4954198;28;102665;-81
2021/07/20 10:32:58;;;;;;;;;6.00;5.00;;;;;24.53;48.26;98468.47;4920108;28;109004;-81
2021/07/20 10:35:41;;;;;;;;;1.00;1.00;;;;;24.55;48.25;98470.91;4861645;28;102519;-81
2021/07/20 10:38:11;;;;;;;;;6.00;5.00;;;;;24.55;48.33;98471.75;4871951;28;102681;-81
2021/07/20 10:40:38;;;;;;;;;5.00;3.67;;;;;24.56;48.20;98467.88;4923495;28;102232;-81
2021/07/20 10:43:13;;;;;;;;;6.00;5.00;;;;;24.57;48.11;98472.28;4916558;28;104091;-81
2021/07/20 10:45:40;;;;;;;;;6.00;5.00;;;;;24.57;48.28;98463.97;4933428;28;102802;-82
2021/07/20 10:48:10;;;;;;;;;4.67;3.67;;;;;24.58;48.31;98464.81;4935051;28;102506;-82
2021/07/20 10:50:56;;;;;;;;;8.00;4.67;;;;;24.58;48.39;98457.34;4942746;28;102722;-81
2021/07/20 10:53:41;;;;;;;;;6.33;5.00;;;;;24.60;48.11;98460.63;4935827;28;108931;-81
2021/07/20 10:56:27;;;;;;;;;4.00;4.00;;;;;24.60;48.22;98460.63;4878815;28;103034;-81
2021/07/20 10:58:54;;;;;;;;;6.33;6.00;;;;;24.59;48.20;98461.72;4926921;28;102347;-81
2021/07/20 11:01:43;;;;;;;;;6.00;5.00;;;;;24.60;48.50;98462.56;4934516;28;102705;-81
2021/07/20 11:04:45;;;;;;;;;5.33;5.33;;;;;24.61;48.46;98453.97;4836002;28;109211;-82
2021/07/20 11:07:40;;;;;;;;;4.00;4.00;;;;;24.60;48.27;98446.78;4863392;28;102836;-81
2021/07/20 11:10:18;;;;;;;;;4.33;4.00;;;;;24.62;48.43;98439.03;4869053;28;102573;-81
2021/07/20 11:12:54;;;;;;;;;5.67;5.00;;;;;24.62;48.25;98438.22;4939674;28;102608;-81
2021/07/20 11:15:21;;;;;;;;;9.00;5.00;;;;;24.65;48.45;98443.16;4928775;28;104418;-81
2021/07/20 11:17:49;;;;;;;;;5.33;4.67;;;;;24.66;48.37;98439.25;4934032;28;102606;-81
2021/07/20 11:20:24;;;;;;;;;4.00;4.00;;;;;24.64;48.18;98442.31;4932048;28;102215;-81
2021/07/20 11:22:53;;;;;;;;;4.00;4.00;;;;;24.65;48.32;98443.97;4935480;28;102583;-81
2021/07/20 11:25:20;;;;;;;;;4.00;4.00;;;;;24.66;48.45;98445.63;4928762;28;104269;-81
2021/07/20 11:27:47;;;;;;;;;5.00;4.00;;;;;24.65;48.50;98446.72;4951737;28;104168;-82
2021/07/20 11:30:18;;;;;;;;;5.00;5.00;;;;;24.67;48.29;98446.44;4937071;28;102619;-81
2021/07/20 11:32:52;;;;;;;;;5.00;5.00;;;;;24.66;48.73;98440.09;4932812;28;102646;-81
2021/07/20 11:35:20;;;;;;;;;5.00;5.00;;;;;24.67;48.40;98429.84;4912057;28;104059;-81
2021/07/20 11:37:58;;;;;;;;;2.00;1.33;;;;;24.69;48.66;98424.84;4942927;28;102496;-81
2021/07/20 11:40:30;;;;;;;;;6.00;4.33;;;;;24.71;48.61;98425.38;4929228;28;102321;-81
2021/07/20 11:43:00;;;;;;;;;4.00;4.00;;;;;24.71;48.35;98419.84;4935410;28;102364;-81
2021/07/20 11:45:28;;;;;;;;;5.33;5.33;;;;;24.70;48.38;98424.56;4934946;28;109158;-82